createdAt,value
2019-05-19T00:00:33.342Z,15.77
2019-05-19T00:03:01.836Z,15.83
2019-05-19T00:05:30.302Z,15.90
2019-05-19T00:07:58.762Z,15.81
2019-05-19T00:10:27.230Z,15.73
2019-05-19T00:12:55.672Z,15.73
2019-05-19T00:15:24.143Z,15.67
2019-05-19T00:17:52.582Z,15.42
2019-05-19T00:20:21.056Z,15.28
2019-05-19T00:22:49.505Z,15.17
2019-05-19T00:25:17.964Z,15.16
2019-05-19T00:27:46.425Z,15.21
2019-05-19T00:30:15.025Z,15.27
2019-05-19T00:32:43.662Z,15.23
2019-05-19T00:35:12.160Z,15.43
2019-05-19T00:37:40.628Z,15.32
2019-05-19T00:40:09.529Z,15.47
2019-05-19T00:42:38.050Z,15.29
2019-05-19T00:45:08.374Z,15.34
2019-05-19T00:47:36.813Z,15.37
2019-05-19T00:50:08.501Z,15.22
2019-05-19T00:52:36.942Z,15.22
2019-05-19T00:55:06.693Z,15.15
2019-05-19T00:57:36.499Z,15.21
2019-05-19T01:00:09.524Z,15.28
2019-05-19T01:02:38.047Z,15.33
2019-05-19T01:05:08.016Z,15.34
2019-05-19T01:07:36.842Z,15.12
2019-05-19T01:10:07.590Z,14.98
2019-05-19T01:12:36.053Z,14.76
2019-05-19T01:15:06.566Z,14.68
2019-05-19T01:17:35.051Z,14.72
2019-05-19T01:20:04.851Z,14.92
2019-05-19T01:22:33.312Z,15.00
2019-05-19T01:25:01.835Z,14.74
2019-05-19T01:27:30.237Z,14.61
2019-05-19T01:29:58.667Z,14.72
2019-05-19T01:32:27.139Z,14.94
2019-05-19T01:34:55.598Z,14.94
2019-05-19T01:37:24.061Z,14.92
2019-05-19T01:39:52.547Z,14.69
2019-05-19T01:42:20.987Z,14.66
2019-05-19T01:44:49.467Z,14.65
2019-05-19T01:47:18.009Z,14.72
2019-05-19T01:49:46.455Z,14.24
2019-05-19T01:52:14.905Z,14.21
2019-05-19T01:54:43.371Z,14.35
2019-05-19T01:57:11.846Z,14.15
2019-05-19T01:59:40.305Z,14.08
2019-05-19T02:02:08.781Z,14.28
2019-05-19T02:04:37.221Z,14.36
2019-05-19T02:07:05.698Z,14.46
2019-05-19T02:09:34.175Z,14.58
2019-05-19T02:12:02.623Z,14.37
2019-05-19T02:14:31.128Z,14.27
2019-05-19T02:16:59.573Z,14.25
2019-05-19T02:19:28.023Z,14.20
2019-05-19T02:21:56.498Z,14.48
2019-05-19T02:24:24.955Z,14.34
2019-05-19T02:26:53.405Z,14.35
2019-05-19T02:29:21.884Z,14.46
2019-05-19T02:31:50.355Z,14.60
2019-05-19T02:34:18.809Z,14.49
2019-05-19T02:36:47.281Z,14.49
2019-05-19T02:39:15.747Z,14.47
2019-05-19T02:41:47.241Z,14.21
2019-05-19T02:44:17.549Z,14.27
2019-05-19T02:46:46.645Z,14.33
2019-05-19T02:49:17.256Z,14.30
2019-05-19T02:51:49.602Z,14.29
2019-05-19T02:54:19.942Z,14.32
2019-05-19T02:56:49.834Z,14.25
2019-05-19T02:59:20.545Z,14.24
2019-05-19T03:02:02.639Z,14.33
2019-05-19T03:04:31.207Z,14.28
2019-05-19T03:06:59.707Z,14.33
2019-05-19T03:09:29.311Z,14.33
2019-05-19T03:11:57.795Z,14.29
2019-05-19T03:14:26.282Z,14.38
2019-05-19T03:16:54.700Z,14.53
2019-05-19T03:19:23.199Z,14.65
2019-05-19T03:21:51.686Z,14.38
2019-05-19T03:24:20.142Z,14.49
2019-05-19T03:26:49.323Z,14.39
2019-05-19T03:29:19.421Z,14.49
2019-05-19T03:31:52.243Z,14.43
2019-05-19T03:34:20.668Z,14.29
2019-05-19T03:36:49.106Z,14.51
2019-05-19T03:39:17.589Z,14.52
2019-05-19T03:41:46.105Z,14.53
2019-05-19T03:44:14.597Z,14.45
2019-05-19T03:46:43.775Z,14.60
2019-05-19T03:49:12.245Z,14.47
2019-05-19T03:51:40.681Z,14.37
2019-05-19T03:54:09.187Z,14.47
2019-05-19T03:56:37.598Z,14.44
2019-05-19T03:59:06.048Z,14.63
2019-05-19T04:01:34.520Z,14.67
2019-05-19T04:04:02.994Z,14.27
2019-05-19T04:06:31.431Z,14.32
2019-05-19T04:08:59.911Z,14.67
2019-05-19T04:11:28.352Z,14.80
2019-05-19T04:13:56.811Z,14.65
2019-05-19T04:16:25.290Z,14.68
2019-05-19T04:18:53.799Z,14.69
2019-05-19T04:21:22.255Z,14.98
2019-05-19T04:23:50.712Z,14.68
2019-05-19T04:26:19.150Z,15.03
2019-05-19T04:28:47.647Z,15.27
2019-05-19T04:31:16.084Z,15.32
2019-05-19T04:33:44.515Z,15.41
2019-05-19T04:36:12.993Z,15.06
2019-05-19T04:38:41.427Z,15.38
2019-05-19T04:41:09.885Z,15.69
2019-05-19T04:43:38.365Z,15.80
2019-05-19T04:46:06.820Z,15.95
2019-05-19T04:48:35.292Z,15.99
2019-05-19T04:51:03.817Z,15.89
2019-05-19T04:53:32.231Z,15.73
2019-05-19T04:56:00.693Z,15.86
2019-05-19T04:58:29.177Z,15.62
2019-05-19T05:00:57.603Z,15.62
2019-05-19T05:03:26.078Z,15.67
2019-05-19T05:05:54.515Z,15.77
2019-05-19T05:08:29.896Z,15.92
2019-05-19T05:10:53.142Z,15.99
2019-05-19T05:13:21.610Z,16.18
2019-05-19T05:15:50.066Z,16.13
2019-05-19T05:18:18.541Z,16.48
2019-05-19T05:20:46.966Z,16.85
2019-05-19T05:23:15.419Z,16.97
2019-05-19T05:25:43.872Z,16.75
2019-05-19T05:28:12.334Z,16.56
2019-05-19T05:30:40.817Z,16.44
2019-05-19T05:33:09.258Z,16.53
2019-05-19T05:35:37.689Z,16.78
2019-05-19T05:38:06.160Z,16.96
2019-05-19T05:40:34.617Z,16.56
2019-05-19T05:43:03.081Z,16.73
2019-05-19T05:45:31.577Z,16.62
2019-05-19T05:48:00.002Z,16.91
2019-05-19T05:50:28.475Z,17.09
2019-05-19T05:52:56.916Z,17.06
2019-05-19T05:55:25.357Z,17.06
2019-05-19T05:57:53.818Z,17.23
2019-05-19T06:00:23.872Z,17.49
2019-05-19T06:02:52.332Z,17.50
2019-05-19T06:05:20.784Z,17.78
2019-05-19T06:07:49.237Z,17.72
2019-05-19T06:10:18.514Z,17.55
2019-05-19T06:12:46.991Z,17.66
2019-05-19T06:15:15.433Z,17.64
2019-05-19T06:17:43.895Z,17.88
2019-05-19T06:20:12.610Z,17.68
2019-05-19T06:22:55.052Z,18.17
2019-05-19T06:25:11.406Z,18.53
2019-05-19T06:27:39.880Z,18.66
2019-05-19T06:30:09.055Z,18.40
2019-05-19T06:32:45.330Z,18.37
2019-05-19T06:35:14.221Z,18.33
2019-05-19T06:37:42.686Z,18.54
2019-05-19T06:40:12.400Z,18.42
2019-05-19T06:42:41.795Z,18.80
2019-05-19T06:45:10.790Z,19.00
2019-05-19T06:47:39.264Z,19.34
2019-05-19T06:50:08.749Z,19.53
2019-05-19T06:52:37.218Z,19.47
2019-05-19T06:55:06.919Z,19.36
2019-05-19T06:57:35.367Z,19.62
2019-05-19T07:00:05.866Z,19.52
2019-05-19T07:02:34.382Z,19.61
2019-05-19T07:05:03.063Z,19.79
2019-05-19T07:07:31.466Z,19.77
2019-05-19T07:09:59.983Z,19.89
2019-05-19T07:12:28.425Z,20.08
2019-05-19T07:14:56.904Z,19.90
2019-05-19T07:17:25.364Z,19.95
2019-05-19T07:19:53.843Z,20.05
2019-05-19T07:22:22.310Z,20.03
2019-05-19T07:24:50.761Z,20.19
2019-05-19T07:27:19.309Z,20.51
2019-05-19T07:29:49.263Z,20.62
2019-05-19T07:32:17.733Z,20.66
2019-05-19T07:34:46.214Z,20.65
2019-05-19T07:37:14.658Z,20.65
2019-05-19T07:39:43.142Z,20.91
2019-05-19T07:42:11.685Z,20.98
2019-05-19T07:44:40.137Z,21.17
2019-05-19T07:47:08.586Z,21.37
2019-05-19T07:49:37.065Z,21.17
2019-05-19T07:52:05.540Z,21.40
2019-05-19T07:54:35.667Z,21.61
2019-05-19T07:57:04.168Z,21.68
2019-05-19T07:59:32.644Z,21.68
2019-05-19T08:02:01.117Z,21.74
2019-05-19T08:04:29.537Z,21.83
2019-05-19T08:06:58.009Z,21.97
2019-05-19T08:09:26.491Z,22.08
2019-05-19T08:11:54.983Z,22.29
2019-05-19T08:14:23.521Z,22.19
2019-05-19T08:16:51.989Z,22.32
2019-05-19T08:19:20.442Z,22.35
2019-05-19T08:21:48.979Z,22.46
2019-05-19T08:24:17.436Z,22.47
2019-05-19T08:26:45.877Z,22.70
2019-05-19T08:29:14.353Z,22.73
2019-05-19T08:31:42.796Z,22.99
2019-05-19T08:34:11.397Z,23.08
2019-05-19T08:36:39.839Z,23.11
2019-05-19T08:39:08.303Z,23.06
2019-05-19T08:41:36.740Z,23.09
2019-05-19T08:44:05.460Z,22.94
2019-05-19T08:46:33.954Z,22.65
2019-05-19T08:49:02.393Z,22.53
2019-05-19T08:51:30.835Z,22.38
2019-05-19T08:54:12.545Z,22.60
2019-05-19T08:56:29.501Z,22.89
2019-05-19T08:58:57.957Z,22.88
2019-05-19T09:01:26.416Z,22.37
2019-05-19T09:03:54.853Z,22.27
2019-05-19T09:06:23.371Z,22.06
2019-05-19T09:08:51.878Z,22.24
2019-05-19T09:11:20.362Z,22.39
2019-05-19T09:13:48.818Z,22.63
2019-05-19T09:16:17.305Z,22.73
2019-05-19T09:18:45.728Z,22.85
2019-05-19T09:21:14.178Z,22.92
2019-05-19T09:23:42.639Z,23.09
2019-05-19T09:26:11.150Z,23.02
2019-05-19T09:28:39.609Z,22.90
2019-05-19T09:31:08.081Z,23.12
2019-05-19T09:33:36.516Z,23.10
2019-05-19T09:36:04.985Z,23.03
2019-05-19T09:38:33.634Z,22.94
2019-05-19T09:41:02.214Z,23.03
2019-05-19T09:43:30.675Z,23.13
2019-05-19T09:45:59.483Z,23.23
2019-05-19T09:48:27.975Z,23.28
2019-05-19T09:50:56.455Z,23.29
2019-05-19T09:53:24.875Z,23.45
2019-05-19T09:55:53.318Z,23.22
2019-05-19T09:58:21.807Z,23.49
2019-05-19T10:00:50.271Z,23.46
2019-05-19T10:03:19.740Z,23.50
2019-05-19T10:05:48.373Z,23.37
2019-05-19T10:08:18.522Z,23.40
2019-05-19T10:11:11.543Z,23.73
2019-05-19T10:13:40.025Z,23.78
2019-05-19T10:16:08.452Z,24.07
2019-05-19T10:18:36.906Z,23.64
2019-05-19T10:21:05.368Z,23.50
2019-05-19T10:23:33.845Z,23.43
2019-05-19T10:26:02.295Z,23.72
2019-05-19T10:28:30.724Z,23.61
2019-05-19T10:30:59.186Z,23.60
2019-05-19T10:33:27.648Z,23.69
2019-05-19T10:35:56.095Z,23.80
2019-05-19T10:38:24.558Z,23.88
2019-05-19T10:40:53.038Z,23.95
2019-05-19T10:43:21.500Z,24.06
2019-05-19T10:45:51.584Z,23.83
2019-05-19T10:48:20.023Z,23.95
2019-05-19T10:50:48.520Z,24.16
2019-05-19T10:53:16.952Z,24.19
2019-05-19T10:55:46.278Z,24.47
2019-05-19T10:58:14.733Z,24.42
2019-05-19T11:00:43.210Z,24.38
2019-05-19T11:03:11.651Z,24.18
2019-05-19T11:05:40.120Z,24.18
2019-05-19T11:08:08.588Z,24.29
2019-05-19T11:10:37.027Z,24.23
2019-05-19T11:13:05.465Z,24.48
2019-05-19T11:15:33.942Z,24.63
2019-05-19T11:18:02.409Z,24.57
2019-05-19T11:20:30.862Z,24.68
2019-05-19T11:22:59.330Z,24.84
2019-05-19T11:25:33.805Z,24.59
2019-05-19T11:27:57.957Z,24.56
2019-05-19T11:30:26.439Z,24.34
2019-05-19T11:32:54.931Z,24.51
2019-05-19T11:35:23.401Z,24.82
2019-05-19T11:37:51.840Z,24.83
2019-05-19T11:40:20.316Z,24.91
2019-05-19T11:42:48.746Z,24.89
2019-05-19T11:45:17.483Z,24.83
2019-05-19T11:47:45.916Z,25.05
2019-05-19T11:50:14.515Z,25.00
2019-05-19T11:52:43.010Z,24.89
2019-05-19T11:55:11.688Z,24.98
2019-05-19T11:57:40.147Z,24.92
2019-05-19T12:00:09.377Z,24.89
2019-05-19T12:02:37.843Z,24.33
2019-05-19T12:05:06.463Z,24.44
2019-05-19T12:07:34.906Z,24.65
2019-05-19T12:10:03.507Z,24.81
2019-05-19T12:12:31.988Z,25.08
2019-05-19T12:15:00.455Z,24.92
2019-05-19T12:17:28.926Z,24.93
2019-05-19T12:19:57.362Z,25.12
2019-05-19T12:22:25.836Z,25.28
2019-05-19T12:24:54.267Z,25.08
2019-05-19T12:27:22.730Z,24.91
2019-05-19T12:29:52.496Z,25.24
2019-05-19T12:32:20.982Z,24.91
2019-05-19T12:34:49.441Z,25.29
2019-05-19T12:37:17.909Z,25.49
2019-05-19T12:39:46.358Z,25.63
2019-05-19T12:42:14.815Z,25.36
2019-05-19T12:44:43.247Z,25.08
2019-05-19T12:47:11.696Z,25.57
2019-05-19T12:49:40.164Z,25.47
2019-05-19T12:52:08.593Z,25.42
2019-05-19T12:54:37.090Z,25.19
2019-05-19T12:57:05.706Z,25.06
2019-05-19T12:59:34.165Z,24.98
2019-05-19T13:02:02.604Z,25.01
2019-05-19T13:04:31.037Z,25.01
2019-05-19T13:06:59.501Z,24.85
2019-05-19T13:09:28.008Z,25.04
2019-05-19T13:11:56.493Z,25.04
2019-05-19T13:14:24.935Z,25.00
2019-05-19T13:16:53.402Z,25.06
2019-05-19T13:19:21.879Z,25.27
2019-05-19T13:21:50.334Z,25.20
2019-05-19T13:24:18.795Z,25.07
2019-05-19T13:26:55.960Z,25.14
2019-05-19T13:29:17.436Z,24.94
2019-05-19T13:31:46.655Z,25.30
2019-05-19T13:34:15.268Z,25.35
2019-05-19T13:36:43.721Z,25.28
2019-05-19T13:39:12.157Z,25.26
2019-05-19T13:41:40.623Z,25.22
2019-05-19T13:44:09.097Z,25.12
2019-05-19T13:46:37.535Z,25.15
2019-05-19T13:49:05.979Z,25.47
2019-05-19T13:51:34.456Z,25.26
2019-05-19T13:54:02.919Z,25.30
2019-05-19T13:56:33.052Z,24.80
2019-05-19T13:59:01.555Z,24.42
2019-05-19T14:01:30.009Z,24.33
2019-05-19T14:03:58.442Z,24.21
2019-05-19T14:06:27.066Z,23.59
2019-05-19T14:08:55.526Z,23.61
2019-05-19T14:11:23.977Z,23.50
2019-05-19T14:13:52.446Z,23.52
2019-05-19T14:16:20.871Z,23.59
2019-05-19T14:18:49.322Z,23.44
2019-05-19T14:21:17.806Z,23.49
2019-05-19T14:23:46.276Z,23.57
2019-05-19T14:26:14.757Z,23.99
2019-05-19T14:28:43.198Z,24.18
2019-05-19T14:31:11.653Z,23.97
2019-05-19T14:33:40.122Z,23.65
2019-05-19T14:36:08.570Z,23.36
2019-05-19T14:38:38.668Z,22.92
2019-05-19T14:41:07.159Z,22.79
2019-05-19T14:43:35.630Z,22.76
2019-05-19T14:46:04.064Z,22.61
2019-05-19T14:48:32.524Z,22.66
2019-05-19T14:51:01.008Z,22.59
2019-05-19T14:53:29.483Z,22.47
2019-05-19T14:55:57.935Z,22.45
2019-05-19T14:58:26.385Z,22.39
2019-05-19T15:00:54.828Z,22.27
2019-05-19T15:03:23.273Z,22.16
2019-05-19T15:05:52.133Z,22.09
2019-05-19T15:08:20.577Z,22.03
2019-05-19T15:10:49.012Z,22.19
2019-05-19T15:13:17.477Z,22.23
2019-05-19T15:15:45.917Z,22.20
2019-05-19T15:18:14.400Z,22.13
2019-05-19T15:20:42.859Z,22.08
2019-05-19T15:23:11.314Z,22.10
2019-05-19T15:25:39.845Z,22.11
2019-05-19T15:28:08.500Z,22.32
2019-05-19T15:30:36.934Z,22.48
2019-05-19T15:33:05.360Z,22.84
2019-05-19T15:35:33.846Z,23.06
2019-05-19T15:38:02.333Z,23.35
2019-05-19T15:40:30.797Z,23.27
2019-05-19T15:42:59.238Z,23.23
2019-05-19T15:45:27.711Z,23.28
2019-05-19T15:47:56.242Z,23.11
2019-05-19T15:50:24.687Z,23.09
2019-05-19T15:52:53.148Z,23.08
2019-05-19T15:55:21.601Z,23.12
2019-05-19T15:57:50.070Z,23.14
2019-05-19T16:00:20.201Z,23.11
2019-05-19T16:02:48.665Z,22.90
2019-05-19T16:05:17.124Z,23.11
2019-05-19T16:07:45.592Z,23.22
2019-05-19T16:10:14.794Z,23.04
2019-05-19T16:12:43.243Z,23.34
2019-05-19T16:15:12.526Z,23.23
2019-05-19T16:17:41.020Z,23.12
2019-05-19T16:20:09.591Z,23.60
2019-05-19T16:22:38.027Z,24.10
2019-05-19T16:25:07.823Z,24.46
2019-05-19T16:27:36.322Z,24.76
2019-05-19T16:30:06.696Z,25.01
2019-05-19T16:32:35.144Z,25.55
2019-05-19T16:35:04.198Z,25.42
2019-05-19T16:37:32.822Z,25.81
2019-05-19T16:40:01.331Z,25.57
2019-05-19T16:42:29.807Z,24.55
2019-05-19T16:44:58.266Z,24.20
2019-05-19T16:47:26.730Z,23.79
2019-05-19T16:49:55.202Z,23.38
2019-05-19T16:52:23.646Z,23.23
2019-05-19T16:55:10.060Z,22.61
2019-05-19T16:57:38.488Z,22.72
2019-05-19T17:00:07.322Z,22.68
2019-05-19T17:02:35.731Z,22.54
2019-05-19T17:05:05.763Z,22.59
2019-05-19T17:07:34.220Z,22.71
2019-05-19T17:10:02.740Z,22.51
2019-05-19T17:12:31.249Z,22.55
2019-05-19T17:14:59.689Z,22.47
2019-05-19T17:17:28.153Z,22.42
2019-05-19T17:19:56.648Z,22.57
2019-05-19T17:22:25.130Z,22.52
2019-05-19T17:24:53.587Z,22.50
2019-05-19T17:27:22.011Z,22.55
2019-05-19T17:29:50.507Z,22.43
2019-05-19T17:32:18.943Z,22.41
2019-05-19T17:34:47.423Z,22.33
2019-05-19T17:37:15.927Z,22.41
2019-05-19T17:39:44.421Z,22.46
2019-05-19T17:42:13.849Z,22.42
2019-05-19T17:44:42.608Z,22.38
2019-05-19T17:47:11.059Z,22.31
2019-05-19T17:49:39.525Z,22.38
2019-05-19T17:52:07.999Z,22.46
2019-05-19T17:54:36.450Z,22.34
2019-05-19T17:57:04.985Z,22.43
2019-05-19T17:59:34.149Z,22.39
2019-05-19T18:02:02.609Z,22.39
2019-05-19T18:04:31.093Z,22.46
2019-05-19T18:06:59.575Z,22.41
2019-05-19T18:09:28.016Z,22.43
2019-05-19T18:11:56.478Z,22.36
2019-05-19T18:14:24.967Z,22.25
2019-05-19T18:16:53.447Z,22.16
2019-05-19T18:19:21.892Z,22.24
2019-05-19T18:21:50.329Z,22.17
2019-05-19T18:24:18.828Z,22.19
2019-05-19T18:26:47.304Z,22.03
2019-05-19T18:29:15.789Z,22.06
2019-05-19T18:31:44.266Z,22.02
2019-05-19T18:34:12.740Z,22.11
2019-05-19T18:36:41.191Z,21.96
2019-05-19T18:39:09.645Z,21.96
2019-05-19T18:41:38.108Z,21.98
2019-05-19T18:44:06.559Z,21.99
2019-05-19T18:46:34.998Z,22.01
2019-05-19T18:49:03.483Z,21.99
2019-05-19T18:51:31.927Z,21.97
2019-05-19T18:54:00.387Z,21.95
2019-05-19T18:56:28.835Z,21.89
2019-05-19T18:58:57.355Z,21.80
2019-05-19T19:01:25.785Z,21.85
2019-05-19T19:03:55.517Z,21.71
2019-05-19T19:06:24.322Z,21.67
2019-05-19T19:08:52.801Z,21.73
2019-05-19T19:11:21.284Z,21.77
2019-05-19T19:13:49.752Z,21.72
2019-05-19T19:16:18.192Z,21.78
2019-05-19T19:18:46.649Z,21.56
2019-05-19T19:21:15.131Z,21.64
2019-05-19T19:23:43.585Z,21.57
2019-05-19T19:26:12.087Z,21.58
2019-05-19T19:28:40.563Z,21.60
2019-05-19T19:31:08.998Z,21.47
2019-05-19T19:33:37.479Z,21.52
2019-05-19T19:36:05.970Z,21.54
2019-05-19T19:38:35.287Z,21.51
2019-05-19T19:41:03.755Z,21.39
2019-05-19T19:43:32.198Z,21.01
2019-05-19T19:46:00.710Z,21.01
2019-05-19T19:48:29.108Z,21.01
2019-05-19T19:50:57.557Z,20.96
2019-05-19T19:53:26.005Z,20.75
2019-05-19T19:55:54.499Z,20.88
2019-05-19T19:58:23.109Z,20.84
2019-05-19T20:00:51.646Z,20.84
2019-05-19T20:03:20.157Z,20.84
2019-05-19T20:05:50.313Z,20.92
2019-05-19T20:08:18.764Z,20.84
2019-05-19T20:10:47.259Z,20.72
2019-05-19T20:13:15.697Z,20.79
2019-05-19T20:15:44.151Z,20.89
2019-05-19T20:18:12.591Z,20.84
2019-05-19T20:20:41.052Z,20.84
2019-05-19T20:23:09.478Z,20.84
2019-05-19T20:25:37.936Z,20.69
2019-05-19T20:28:06.421Z,20.88
2019-05-19T20:30:36.501Z,20.74
2019-05-19T20:33:05.106Z,20.81
2019-05-19T20:35:33.800Z,20.85
2019-05-19T20:38:02.271Z,20.73
2019-05-19T20:40:30.708Z,20.64
2019-05-19T20:42:59.190Z,20.58
2019-05-19T20:45:27.635Z,20.44
2019-05-19T20:47:56.081Z,20.29
2019-05-19T20:50:24.556Z,20.19
2019-05-19T20:52:53.003Z,20.13
2019-05-19T20:55:21.448Z,19.87
2019-05-19T20:57:49.923Z,19.93
2019-05-19T21:00:18.477Z,19.94
2019-05-19T21:02:46.922Z,19.81
2019-05-19T21:05:15.381Z,19.80
2019-05-19T21:07:43.862Z,19.74
2019-05-19T21:10:12.401Z,19.78
2019-05-19T21:12:40.842Z,19.76
2019-05-19T21:15:10.228Z,19.75
2019-05-19T21:17:38.691Z,19.68
2019-05-19T21:20:08.297Z,19.71
2019-05-19T21:22:36.809Z,19.74
2019-05-19T21:25:07.353Z,19.72
2019-05-19T21:27:35.773Z,19.69
2019-05-19T21:30:05.557Z,19.53
2019-05-19T21:32:34.028Z,19.64
2019-05-19T21:35:02.472Z,19.80
2019-05-19T21:37:30.964Z,19.65
2019-05-19T21:39:59.450Z,19.67
2019-05-19T21:42:27.894Z,19.62
2019-05-19T21:44:56.378Z,19.69
2019-05-19T21:47:24.851Z,19.53
2019-05-19T21:49:53.275Z,19.46
2019-05-19T21:52:21.749Z,19.55
2019-05-19T21:54:50.210Z,19.56
2019-05-19T21:57:18.704Z,19.38
2019-05-19T21:59:47.148Z,19.37
2019-05-19T22:02:15.589Z,19.36
2019-05-19T22:04:44.089Z,19.39
2019-05-19T22:07:14.204Z,19.28
2019-05-19T22:09:42.642Z,19.20
2019-05-19T22:12:11.118Z,19.19
2019-05-19T22:14:39.566Z,19.15
2019-05-19T22:17:08.063Z,19.17
2019-05-19T22:19:36.554Z,19.12
2019-05-19T22:22:05.024Z,19.06
2019-05-19T22:24:33.493Z,18.99
2019-05-19T22:27:01.964Z,19.03
2019-05-19T22:29:30.417Z,18.89
2019-05-19T22:31:58.861Z,18.87
2019-05-19T22:34:27.337Z,18.78
2019-05-19T22:36:55.798Z,18.78
2019-05-19T22:39:24.287Z,18.55
2019-05-19T22:41:52.742Z,18.66
2019-05-19T22:44:21.199Z,18.56
2019-05-19T22:46:49.765Z,18.61
2019-05-19T22:49:18.203Z,18.61
2019-05-19T22:51:46.660Z,18.54
2019-05-19T22:54:15.140Z,18.49
2019-05-19T22:56:43.622Z,18.44
2019-05-19T22:59:19.684Z,18.43
2019-05-19T23:01:51.397Z,18.42
2019-05-19T23:04:12.652Z,18.39
2019-05-19T23:06:41.118Z,18.24
2019-05-19T23:09:09.694Z,18.21
2019-05-19T23:11:38.128Z,18.27
2019-05-19T23:14:06.669Z,18.00
2019-05-19T23:16:35.341Z,18.08
2019-05-19T23:19:03.804Z,18.13
2019-05-19T23:21:34.482Z,18.03
2019-05-19T23:24:02.461Z,18.07
2019-05-19T23:26:30.924Z,18.12
2019-05-19T23:28:59.374Z,18.14
2019-05-19T23:31:27.906Z,17.95
2019-05-19T23:33:59.035Z,18.04
2019-05-19T23:36:27.520Z,18.01
2019-05-19T23:38:55.977Z,17.97
2019-05-19T23:41:24.495Z,18.00
2019-05-19T23:43:52.952Z,17.95
2019-05-19T23:46:21.386Z,17.92
2019-05-19T23:48:49.843Z,17.74
2019-05-19T23:51:18.591Z,17.81
2019-05-19T23:53:47.038Z,17.75
2019-05-19T23:56:15.490Z,17.84
2019-05-19T23:58:43.965Z,17.67
